sensor_id;sensor_type;location;lat;lon;timestamp;temperature;humidity
37974;DHT22;23796;51.458;7.000;2022-11-20T00:01:08;-0.20;99.90
37974;DHT22;23796;51.458;7.000;2022-11-20T00:03:33;-0.30;99.90
37974;DHT22;23796;51.458;7.000;2022-11-20T00:06:00;-0.30;99.90
37974;DHT22;23796;51.458;7.000;2022-11-20T00:08:28;-0.30;99.90
37974;DHT22;23796;51.458;7.000;2022-11-20T00:10:54;-0.30;99.90
37974;DHT22;23796;51.458;7.000;2022-11-20T00:13:20;-0.30;99.90
37974;DHT22;23796;51.458;7.000;2022-11-20T00:15:47;-0.30;99.90
37974;DHT22;23796;51.458;7.000;2022-11-20T00:18:13;-0.30;99.90
37974;DHT22;23796;51.458;7.000;2022-11-20T00:20:41;-0.30;99.90
37974;DHT22;23796;51.458;7.000;2022-11-20T00:23:06;-0.30;99.90
37974;DHT22;23796;51.458;7.000;2022-11-20T00:25:34;-0.30;99.90
37974;DHT22;23796;51.458;7.000;2022-11-20T00:28:00;-0.40;99.90
37974;DHT22;23796;51.458;7.000;2022-11-20T00:30:26;-0.40;99.90
37974;DHT22;23796;51.458;7.000;2022-11-20T00:32:53;-0.40;99.90
37974;DHT22;23796;51.458;7.000;2022-11-20T00:35:21;-0.30;99.90
37974;DHT22;23796;51.458;7.000;2022-11-20T00:37:48;-0.30;99.90
37974;DHT22;23796;51.458;7.000;2022-11-20T00:40:16;-0.30;99.90
37974;DHT22;23796;51.458;7.000;2022-11-20T00:42:42;-0.40;99.90
37974;DHT22;23796;51.458;7.000;2022-11-20T00:45:08;-0.40;99.90
37974;DHT22;23796;51.458;7.000;2022-11-20T00:47:38;-0.50;99.90
37974;DHT22;23796;51.458;7.000;2022-11-20T00:50:04;-0.50;99.90
37974;DHT22;23796;51.458;7.000;2022-11-20T00:52:35;-0.60;99.90
37974;DHT22;23796;51.458;7.000;2022-11-20T00:55:01;-0.60;99.90
37974;DHT22;23796;51.458;7.000;2022-11-20T00:57:26;-0.70;99.90
37974;DHT22;23796;51.458;7.000;2022-11-20T00:59:54;-0.70;99.90
37974;DHT22;23796;51.458;7.000;2022-11-20T01:02:20;-0.70;99.90
37974;DHT22;23796;51.458;7.000;2022-11-20T01:04:45;-0.70;99.90
37974;DHT22;23796;51.458;7.000;2022-11-20T01:07:13;-0.60;99.90
37974;DHT22;23796;51.458;7.000;2022-11-20T01:09:41;-0.60;99.90
37974;DHT22;23796;51.458;7.000;2022-11-20T01:12:07;-0.60;99.90
37974;DHT22;23796;51.458;7.000;2022-11-20T01:14:32;-0.50;99.90
37974;DHT22;23796;51.458;7.000;2022-11-20T01:16:58;-0.40;99.90
37974;DHT22;23796;51.458;7.000;2022-11-20T01:19:23;-0.40;99.90
37974;DHT22;23796;51.458;7.000;2022-11-20T01:21:53;-0.40;99.90
37974;DHT22;23796;51.458;7.000;2022-11-20T01:24:20;-0.30;99.90
37974;DHT22;23796;51.458;7.000;2022-11-20T01:26:49;-0.40;99.90
37974;DHT22;23796;51.458;7.000;2022-11-20T01:29:20;-0.40;99.90
37974;DHT22;23796;51.458;7.000;2022-11-20T01:31:46;-0.40;99.90
37974;DHT22;23796;51.458;7.000;2022-11-20T01:34:15;-0.40;99.90
37974;DHT22;23796;51.458;7.000;2022-11-20T01:36:42;-0.30;99.90
37974;DHT22;23796;51.458;7.000;2022-11-20T01:39:20;-0.20;99.90
37974;DHT22;23796;51.458;7.000;2022-11-20T01:41:47;-0.20;99.90
37974;DHT22;23796;51.458;7.000;2022-11-20T01:44:54;-0.10;99.90
37974;DHT22;23796;51.458;7.000;2022-11-20T01:49:59;0.10;99.90
37974;DHT22;23796;51.458;7.000;2022-11-20T01:52:39;0.10;99.90
37974;DHT22;23796;51.458;7.000;2022-11-20T01:55:15;0.20;99.90
37974;DHT22;23796;51.458;7.000;2022-11-20T01:57:44;0.10;99.90
37974;DHT22;23796;51.458;7.000;2022-11-20T02:00:13;0.00;99.90
37974;DHT22;23796;51.458;7.000;2022-11-20T02:02:42;-0.10;99.90
37974;DHT22;23796;51.458;7.000;2022-11-20T02:07:46;-0.10;99.90
37974;DHT22;23796;51.458;7.000;2022-11-20T02:10:13;-0.20;99.90
37974;DHT22;23796;51.458;7.000;2022-11-20T02:12:39;-0.30;99.90
37974;DHT22;23796;51.458;7.000;2022-11-20T02:15:23;-0.40;99.90
37974;DHT22;23796;51.458;7.000;2022-11-20T02:17:51;-0.40;99.90
37974;DHT22;23796;51.458;7.000;2022-11-20T02:20:16;-0.40;99.90
37974;DHT22;23796;51.458;7.000;2022-11-20T02:22:58;-0.30;99.90
37974;DHT22;23796;51.458;7.000;2022-11-20T02:25:26;-0.30;99.90
37974;DHT22;23796;51.458;7.000;2022-11-20T02:27:52;-0.10;99.90
37974;DHT22;23796;51.458;7.000;2022-11-20T02:30:18;0.10;99.90
37974;DHT22;23796;51.458;7.000;2022-11-20T02:32:46;0.10;99.90
37974;DHT22;23796;51.458;7.000;2022-11-20T02:37:44;0.20;99.90
37974;DHT22;23796;51.458;7.000;2022-11-20T02:40:10;0.30;99.90
37974;DHT22;23796;51.458;7.000;2022-11-20T02:42:37;0.50;99.90
37974;DHT22;23796;51.458;7.000;2022-11-20T02:45:06;0.50;99.90
37974;DHT22;23796;51.458;7.000;2022-11-20T02:47:32;0.40;99.90
37974;DHT22;23796;51.458;7.000;2022-11-20T02:49:57;0.60;99.90
37974;DHT22;23796;51.458;7.000;2022-11-20T02:52:24;0.50;99.90
37974;DHT22;23796;51.458;7.000;2022-11-20T02:54:51;0.60;99.90
37974;DHT22;23796;51.458;7.000;2022-11-20T02:57:17;0.60;99.90
37974;DHT22;23796;51.458;7.000;2022-11-20T02:59:43;0.50;99.90
37974;DHT22;23796;51.458;7.000;2022-11-20T03:02:08;0.50;99.90
37974;DHT22;23796;51.458;7.000;2022-11-20T03:04:34;0.30;99.90
37974;DHT22;23796;51.458;7.000;2022-11-20T03:06:59;0.30;99.90
37974;DHT22;23796;51.458;7.000;2022-11-20T03:09:25;0.30;99.90
37974;DHT22;23796;51.458;7.000;2022-11-20T03:11:53;0.30;99.90
37974;DHT22;23796;51.458;7.000;2022-11-20T03:14:21;0.40;99.90
37974;DHT22;23796;51.458;7.000;2022-11-20T03:16:47;0.40;99.90
37974;DHT22;23796;51.458;7.000;2022-11-20T03:19:12;0.30;99.90
37974;DHT22;23796;51.458;7.000;2022-11-20T03:21:39;0.30;99.90
37974;DHT22;23796;51.458;7.000;2022-11-20T03:24:05;0.40;99.90
37974;DHT22;23796;51.458;7.000;2022-11-20T03:26:30;0.40;99.90
37974;DHT22;23796;51.458;7.000;2022-11-20T03:29:00;0.50;99.90
37974;DHT22;23796;51.458;7.000;2022-11-20T03:31:31;0.60;99.90
37974;DHT22;23796;51.458;7.000;2022-11-20T03:33:57;0.60;99.90
37974;DHT22;23796;51.458;7.000;2022-11-20T03:36:25;0.40;99.90
37974;DHT22;23796;51.458;7.000;2022-11-20T03:38:52;0.30;99.90
37974;DHT22;23796;51.458;7.000;2022-11-20T03:41:26;0.30;99.90
37974;DHT22;23796;51.458;7.000;2022-11-20T03:43:58;0.50;99.90
37974;DHT22;23796;51.458;7.000;2022-11-20T03:46:25;0.40;99.90
37974;DHT22;23796;51.458;7.000;2022-11-20T03:48:51;0.40;99.90
37974;DHT22;23796;51.458;7.000;2022-11-20T03:51:24;0.30;99.90
37974;DHT22;23796;51.458;7.000;2022-11-20T03:53:52;0.40;99.90
37974;DHT22;23796;51.458;7.000;2022-11-20T03:56:21;0.50;99.90
37974;DHT22;23796;51.458;7.000;2022-11-20T03:58:47;0.60;99.90
37974;DHT22;23796;51.458;7.000;2022-11-20T04:01:16;0.70;99.90
37974;DHT22;23796;51.458;7.000;2022-11-20T04:03:44;0.80;99.90
37974;DHT22;23796;51.458;7.000;2022-11-20T04:06:18;0.70;99.90
37974;DHT22;23796;51.458;7.000;2022-11-20T04:08:44;0.70;99.90
37974;DHT22;23796;51.458;7.000;2022-11-20T04:13:38;0.80;99.90
37974;DHT22;23796;51.458;7.000;2022-11-20T04:16:05;1.00;99.90
37974;DHT22;23796;51.458;7.000;2022-11-20T04:18:31;0.80;99.90
37974;DHT22;23796;51.458;7.000;2022-11-20T04:20:58;0.90;99.90
37974;DHT22;23796;51.458;7.000;2022-11-20T04:23:24;0.80;99.90
37974;DHT22;23796;51.458;7.000;2022-11-20T04:25:52;0.90;99.90
37974;DHT22;23796;51.458;7.000;2022-11-20T04:28:18;0.90;99.90
37974;DHT22;23796;51.458;7.000;2022-11-20T04:30:46;1.00;99.90
37974;DHT22;23796;51.458;7.000;2022-11-20T04:33:12;1.00;99.90
37974;DHT22;23796;51.458;7.000;2022-11-20T04:35:38;0.80;99.90
37974;DHT22;23796;51.458;7.000;2022-11-20T04:38:04;0.80;99.90
37974;DHT22;23796;51.458;7.000;2022-11-20T04:40:30;0.90;99.90
37974;DHT22;23796;51.458;7.000;2022-11-20T04:42:56;1.00;99.90
37974;DHT22;23796;51.458;7.000;2022-11-20T04:45:23;1.10;99.90
37974;DHT22;23796;51.458;7.000;2022-11-20T04:47:51;1.00;99.90
37974;DHT22;23796;51.458;7.000;2022-11-20T04:50:17;0.90;99.90
37974;DHT22;23796;51.458;7.000;2022-11-20T04:52:42;0.70;99.90
37974;DHT22;23796;51.458;7.000;2022-11-20T04:55:08;0.70;99.90
37974;DHT22;23796;51.458;7.000;2022-11-20T04:57:38;0.70;99.90
37974;DHT22;23796;51.458;7.000;2022-11-20T05:00:04;0.60;99.90
37974;DHT22;23796;51.458;7.000;2022-11-20T05:02:33;0.50;99.90
37974;DHT22;23796;51.458;7.000;2022-11-20T05:04:58;0.60;99.90
37974;DHT22;23796;51.458;7.000;2022-11-20T05:07:26;0.60;99.90
37974;DHT22;23796;51.458;7.000;2022-11-20T05:09:52;0.70;99.90
37974;DHT22;23796;51.458;7.000;2022-11-20T05:12:17;0.90;99.90
37974;DHT22;23796;51.458;7.000;2022-11-20T05:14:43;0.90;99.90
37974;DHT22;23796;51.458;7.000;2022-11-20T05:17:12;0.90;99.90
37974;DHT22;23796;51.458;7.000;2022-11-20T05:19:37;1.10;99.90
37974;DHT22;23796;51.458;7.000;2022-11-20T05:22:05;1.30;99.90
37974;DHT22;23796;51.458;7.000;2022-11-20T05:24:33;1.30;99.90
37974;DHT22;23796;51.458;7.000;2022-11-20T05:26:59;1.40;99.90
37974;DHT22;23796;51.458;7.000;2022-11-20T05:29:26;1.30;99.90
37974;DHT22;23796;51.458;7.000;2022-11-20T05:31:52;1.40;99.90
37974;DHT22;23796;51.458;7.000;2022-11-20T05:34:17;1.40;99.90
37974;DHT22;23796;51.458;7.000;2022-11-20T05:36:43;1.30;99.90
37974;DHT22;23796;51.458;7.000;2022-11-20T05:39:11;1.20;99.90
37974;DHT22;23796;51.458;7.000;2022-11-20T05:41:37;1.50;99.90
37974;DHT22;23796;51.458;7.000;2022-11-20T05:44:05;1.60;99.90
37974;DHT22;23796;51.458;7.000;2022-11-20T05:46:35;1.80;99.90
37974;DHT22;23796;51.458;7.000;2022-11-20T05:49:01;1.60;99.90
37974;DHT22;23796;51.458;7.000;2022-11-20T05:51:27;1.60;99.90
37974;DHT22;23796;51.458;7.000;2022-11-20T05:53:56;1.80;99.90
37974;DHT22;23796;51.458;7.000;2022-11-20T05:56:21;1.80;99.90
37974;DHT22;23796;51.458;7.000;2022-11-20T05:58:50;1.60;99.90
37974;DHT22;23796;51.458;7.000;2022-11-20T06:01:28;1.70;99.90
37974;DHT22;23796;51.458;7.000;2022-11-20T06:03:58;1.90;99.90
37974;DHT22;23796;51.458;7.000;2022-11-20T06:06:23;2.10;99.90
37974;DHT22;23796;51.458;7.000;2022-11-20T06:08:51;1.80;99.90
37974;DHT22;23796;51.458;7.000;2022-11-20T06:11:17;1.60;99.90
37974;DHT22;23796;51.458;7.000;2022-11-20T06:13:43;1.50;99.90
37974;DHT22;23796;51.458;7.000;2022-11-20T06:16:10;1.40;99.90
37974;DHT22;23796;51.458;7.000;2022-11-20T06:18:39;1.30;99.90
37974;DHT22;23796;51.458;7.000;2022-11-20T06:21:13;1.30;99.90
37974;DHT22;23796;51.458;7.000;2022-11-20T06:23:39;1.30;99.90
37974;DHT22;23796;51.458;7.000;2022-11-20T06:26:08;1.40;99.90
37974;DHT22;23796;51.458;7.000;2022-11-20T06:28:34;1.50;99.90
37974;DHT22;23796;51.458;7.000;2022-11-20T06:31:00;1.40;99.90
37974;DHT22;23796;51.458;7.000;2022-11-20T06:33:26;1.40;99.90
37974;DHT22;23796;51.458;7.000;2022-11-20T06:35:55;1.50;99.90
37974;DHT22;23796;51.458;7.000;2022-11-20T06:38:21;1.60;99.90
37974;DHT22;23796;51.458;7.000;2022-11-20T06:40:49;1.70;99.90
37974;DHT22;23796;51.458;7.000;2022-11-20T06:43:14;1.50;99.90
37974;DHT22;23796;51.458;7.000;2022-11-20T06:45:40;1.40;99.90
37974;DHT22;23796;51.458;7.000;2022-11-20T06:48:08;1.30;99.90
37974;DHT22;23796;51.458;7.000;2022-11-20T06:50:44;1.10;99.90
37974;DHT22;23796;51.458;7.000;2022-11-20T06:53:09;1.00;99.90
37974;DHT22;23796;51.458;7.000;2022-11-20T06:55:35;1.00;99.90
37974;DHT22;23796;51.458;7.000;2022-11-20T06:58:00;1.00;99.90
37974;DHT22;23796;51.458;7.000;2022-11-20T07:00:26;1.10;99.90
37974;DHT22;23796;51.458;7.000;2022-11-20T07:02:54;1.20;99.90
37974;DHT22;23796;51.458;7.000;2022-11-20T07:05:20;1.30;99.90
37974;DHT22;23796;51.458;7.000;2022-11-20T07:07:45;1.10;99.90
37974;DHT22;23796;51.458;7.000;2022-11-20T07:12:37;1.00;99.90
37974;DHT22;23796;51.458;7.000;2022-11-20T07:15:03;1.00;99.90
37974;DHT22;23796;51.458;7.000;2022-11-20T07:17:29;0.90;99.90
37974;DHT22;23796;51.458;7.000;2022-11-20T07:19:54;0.80;99.90
37974;DHT22;23796;51.458;7.000;2022-11-20T07:22:20;0.80;99.90
37974;DHT22;23796;51.458;7.000;2022-11-20T07:24:49;0.90;99.90
37974;DHT22;23796;51.458;7.000;2022-11-20T07:27:14;1.00;99.90
37974;DHT22;23796;51.458;7.000;2022-11-20T07:29:40;1.00;99.90
37974;DHT22;23796;51.458;7.000;2022-11-20T07:32:08;1.10;99.90
37974;DHT22;23796;51.458;7.000;2022-11-20T07:34:33;1.30;99.90
37974;DHT22;23796;51.458;7.000;2022-11-20T07:36:59;1.40;99.90
37974;DHT22;23796;51.458;7.000;2022-11-20T07:39:31;1.50;99.90
37974;DHT22;23796;51.458;7.000;2022-11-20T07:41:59;1.60;99.90
37974;DHT22;23796;51.458;7.000;2022-11-20T07:44:25;1.60;99.90
37974;DHT22;23796;51.458;7.000;2022-11-20T07:46:50;1.70;99.90
37974;DHT22;23796;51.458;7.000;2022-11-20T07:49:16;1.70;99.90
37974;DHT22;23796;51.458;7.000;2022-11-20T07:51:41;1.80;99.90
37974;DHT22;23796;51.458;7.000;2022-11-20T07:54:07;2.00;99.90
37974;DHT22;23796;51.458;7.000;2022-11-20T07:56:35;2.10;99.90
37974;DHT22;23796;51.458;7.000;2022-11-20T07:59:00;2.20;99.90
37974;DHT22;23796;51.458;7.000;2022-11-20T08:01:26;2.10;99.90
37974;DHT22;23796;51.458;7.000;2022-11-20T08:03:54;1.90;99.90
37974;DHT22;23796;51.458;7.000;2022-11-20T08:06:22;1.90;99.90
37974;DHT22;23796;51.458;7.000;2022-11-20T08:08:52;1.90;99.90
37974;DHT22;23796;51.458;7.000;2022-11-20T08:11:18;2.00;99.90
37974;DHT22;23796;51.458;7.000;2022-11-20T08:14:02;2.00;99.90
37974;DHT22;23796;51.458;7.000;2022-11-20T08:16:49;2.00;99.90
37974;DHT22;23796;51.458;7.000;2022-11-20T08:19:17;2.10;99.90
37974;DHT22;23796;51.458;7.000;2022-11-20T08:21:45;2.00;99.90
37974;DHT22;23796;51.458;7.000;2022-11-20T08:24:13;1.90;99.90
37974;DHT22;23796;51.458;7.000;2022-11-20T08:26:43;1.80;99.90
37974;DHT22;23796;51.458;7.000;2022-11-20T08:29:09;1.70;99.90
37974;DHT22;23796;51.458;7.000;2022-11-20T08:31:34;1.70;99.90
37974;DHT22;23796;51.458;7.000;2022-11-20T08:34:02;1.70;99.90
37974;DHT22;23796;51.458;7.000;2022-11-20T08:36:28;1.80;99.90
37974;DHT22;23796;51.458;7.000;2022-11-20T08:38:55;1.90;99.90
37974;DHT22;23796;51.458;7.000;2022-11-20T08:41:23;2.00;99.90
37974;DHT22;23796;51.458;7.000;2022-11-20T08:43:53;2.10;99.90
37974;DHT22;23796;51.458;7.000;2022-11-20T08:46:19;2.20;99.90
37974;DHT22;23796;51.458;7.000;2022-11-20T08:48:45;2.40;99.90
37974;DHT22;23796;51.458;7.000;2022-11-20T08:51:15;2.50;99.90
37974;DHT22;23796;51.458;7.000;2022-11-20T08:53:41;2.60;99.90
37974;DHT22;23796;51.458;7.000;2022-11-20T08:56:07;2.50;99.90
37974;DHT22;23796;51.458;7.000;2022-11-20T08:58:35;2.60;99.90
37974;DHT22;23796;51.458;7.000;2022-11-20T09:01:01;2.80;99.90
37974;DHT22;23796;51.458;7.000;2022-11-20T09:03:26;2.90;99.90
37974;DHT22;23796;51.458;7.000;2022-11-20T09:06:06;3.00;99.90
37974;DHT22;23796;51.458;7.000;2022-11-20T09:08:32;3.10;99.90
37974;DHT22;23796;51.458;7.000;2022-11-20T09:10:58;3.30;99.90
37974;DHT22;23796;51.458;7.000;2022-11-20T09:13:28;3.50;99.90
37974;DHT22;23796;51.458;7.000;2022-11-20T09:18:23;3.70;99.90
37974;DHT22;23796;51.458;7.000;2022-11-20T09:20:51;3.80;99.90
37974;DHT22;23796;51.458;7.000;2022-11-20T09:23:21;3.90;99.90
37974;DHT22;23796;51.458;7.000;2022-11-20T09:25:46;4.00;99.90
37974;DHT22;23796;51.458;7.000;2022-11-20T09:28:12;4.00;99.90
37974;DHT22;23796;51.458;7.000;2022-11-20T09:30:38;3.90;99.90
37974;DHT22;23796;51.458;7.000;2022-11-20T09:33:05;4.00;99.90
37974;DHT22;23796;51.458;7.000;2022-11-20T09:35:31;4.00;99.90
37974;DHT22;23796;51.458;7.000;2022-11-20T09:38:03;4.10;99.90
37974;DHT22;23796;51.458;7.000;2022-11-20T09:40:29;4.20;99.90
37974;DHT22;23796;51.458;7.000;2022-11-20T09:43:13;4.50;99.90
37974;DHT22;23796;51.458;7.000;2022-11-20T09:53:44;5.20;99.90
37974;DHT22;23796;51.458;7.000;2022-11-20T09:56:12;5.20;99.90
37974;DHT22;23796;51.458;7.000;2022-11-20T09:59:14;5.30;99.90
37974;DHT22;23796;51.458;7.000;2022-11-20T10:01:35;5.50;99.90
37974;DHT22;23796;51.458;7.000;2022-11-20T10:04:15;5.60;99.90
37974;DHT22;23796;51.458;7.000;2022-11-20T10:07:23;5.70;99.90
37974;DHT22;23796;51.458;7.000;2022-11-20T10:09:55;6.00;99.90
37974;DHT22;23796;51.458;7.000;2022-11-20T10:15:04;5.50;99.90
37974;DHT22;23796;51.458;7.000;2022-11-20T10:31:43;5.20;99.90
37974;DHT22;23796;51.458;7.000;2022-11-20T10:34:31;5.30;99.90
37974;DHT22;23796;51.458;7.000;2022-11-20T10:37:02;5.50;99.90
37974;DHT22;23796;51.458;7.000;2022-11-20T10:39:40;5.60;99.90
37974;DHT22;23796;51.458;7.000;2022-11-20T10:42:17;5.80;99.90
37974;DHT22;23796;51.458;7.000;2022-11-20T10:47:29;6.00;99.90
37974;DHT22;23796;51.458;7.000;2022-11-20T10:49:58;6.10;99.90
37974;DHT22;23796;51.458;7.000;2022-11-20T10:55:46;6.10;99.90
37974;DHT22;23796;51.458;7.000;2022-11-20T11:01:11;6.30;99.90
37974;DHT22;23796;51.458;7.000;2022-11-20T11:03:38;6.50;99.90
37974;DHT22;23796;51.458;7.000;2022-11-20T11:06:08;6.50;99.90
37974;DHT22;23796;51.458;7.000;2022-11-20T11:08:38;6.60;99.90
37974;DHT22;23796;51.458;7.000;2022-11-20T11:11:25;6.80;99.90
37974;DHT22;23796;51.458;7.000;2022-11-20T11:13:52;6.80;99.90
37974;DHT22;23796;51.458;7.000;2022-11-20T11:16:26;6.90;99.90
37974;DHT22;23796;51.458;7.000;2022-11-20T11:19:06;7.00;99.90
37974;DHT22;23796;51.458;7.000;2022-11-20T11:21:32;7.10;99.90
37974;DHT22;23796;51.458;7.000;2022-11-20T11:24:00;7.20;99.90
37974;DHT22;23796;51.458;7.000;2022-11-20T11:26:26;7.30;99.90
37974;DHT22;23796;51.458;7.000;2022-11-20T11:31:39;7.40;99.90
37974;DHT22;23796;51.458;7.000;2022-11-20T11:34:12;7.40;99.90
37974;DHT22;23796;51.458;7.000;2022-11-20T11:36:38;7.40;99.90
37974;DHT22;23796;51.458;7.000;2022-11-20T11:39:06;7.40;99.90
37974;DHT22;23796;51.458;7.000;2022-11-20T11:41:35;7.40;99.90
37974;DHT22;23796;51.458;7.000;2022-11-20T11:44:23;7.40;99.90
37974;DHT22;23796;51.458;7.000;2022-11-20T11:48:05;7.40;99.90
37974;DHT22;23796;51.458;7.000;2022-11-20T12:01:27;7.60;99.90
37974;DHT22;23796;51.458;7.000;2022-11-20T12:06:50;7.50;99.90
37974;DHT22;23796;51.458;7.000;2022-11-20T12:09:18;7.10;99.90
37974;DHT22;23796;51.458;7.000;2022-11-20T12:12:05;7.10;99.90
37974;DHT22;23796;51.458;7.000;2022-11-20T12:14:39;7.10;99.90
37974;DHT22;23796;51.458;7.000;2022-11-20T12:17:13;7.20;99.90
37974;DHT22;23796;51.458;7.000;2022-11-20T12:19:39;7.20;99.90
37974;DHT22;23796;51.458;7.000;2022-11-20T12:22:39;7.20;99.90
37974;DHT22;23796;51.458;7.000;2022-11-20T12:25:20;7.20;99.90
37974;DHT22;23796;51.458;7.000;2022-11-20T12:30:47;7.10;99.90
37974;DHT22;23796;51.458;7.000;2022-11-20T12:33:28;7.10;99.90
37974;DHT22;23796;51.458;7.000;2022-11-20T12:36:28;7.10;99.90
37974;DHT22;23796;51.458;7.000;2022-11-20T12:42:10;7.20;99.90
37974;DHT22;23796;51.458;7.000;2022-11-20T12:53:08;7.20;99.90
37974;DHT22;23796;51.458;7.000;2022-11-20T12:55:45;7.20;99.90
37974;DHT22;23796;51.458;7.000;2022-11-20T13:06:50;7.20;99.90
37974;DHT22;23796;51.458;7.000;2022-11-20T13:09:19;7.20;99.90
37974;DHT22;23796;51.458;7.000;2022-11-20T13:11:51;7.00;99.90
37974;DHT22;23796;51.458;7.000;2022-11-20T13:14:43;7.10;99.90
37974;DHT22;23796;51.458;7.000;2022-11-20T13:19:52;7.30;99.90
37974;DHT22;23796;51.458;7.000;2022-11-20T13:24:57;7.20;99.90
37974;DHT22;23796;51.458;7.000;2022-11-20T13:27:23;7.20;99.90
37974;DHT22;23796;51.458;7.000;2022-11-20T13:30:13;7.20;99.90
37974;DHT22;23796;51.458;7.000;2022-11-20T13:32:54;7.20;99.90
37974;DHT22;23796;51.458;7.000;2022-11-20T13:35:41;7.20;99.90
37974;DHT22;23796;51.458;7.000;2022-11-20T13:38:17;7.20;99.90
37974;DHT22;23796;51.458;7.000;2022-11-20T13:43:37;7.10;99.90
37974;DHT22;23796;51.458;7.000;2022-11-20T13:46:09;7.10;99.90
37974;DHT22;23796;51.458;7.000;2022-11-20T13:48:42;7.10;99.90
37974;DHT22;23796;51.458;7.000;2022-11-20T14:01:33;7.20;99.90
37974;DHT22;23796;51.458;7.000;2022-11-20T14:04:06;7.10;99.90
37974;DHT22;23796;51.458;7.000;2022-11-20T14:06:41;7.00;99.90
37974;DHT22;23796;51.458;7.000;2022-11-20T14:09:32;7.10;99.90
37974;DHT22;23796;51.458;7.000;2022-11-20T14:11:59;7.00;99.90
37974;DHT22;23796;51.458;7.000;2022-11-20T14:14:29;7.10;99.90
37974;DHT22;23796;51.458;7.000;2022-11-20T14:17:15;7.10;99.90
37974;DHT22;23796;51.458;7.000;2022-11-20T14:19:43;7.10;99.90
37974;DHT22;23796;51.458;7.000;2022-11-20T14:24:44;7.00;99.90
37974;DHT22;23796;51.458;7.000;2022-11-20T14:27:18;7.00;99.90
37974;DHT22;23796;51.458;7.000;2022-11-20T14:29:46;7.00;99.90
37974;DHT22;23796;51.458;7.000;2022-11-20T14:32:16;6.90;99.90
37974;DHT22;23796;51.458;7.000;2022-11-20T14:34:47;6.90;99.90
37974;DHT22;23796;51.458;7.000;2022-11-20T14:37:19;6.90;99.90
37974;DHT22;23796;51.458;7.000;2022-11-20T14:39:56;6.80;99.90
37974;DHT22;23796;51.458;7.000;2022-11-20T14:42:25;6.80;99.90
37974;DHT22;23796;51.458;7.000;2022-11-20T14:44:54;6.80;99.90
37974;DHT22;23796;51.458;7.000;2022-11-20T14:47:23;6.90;99.90
37974;DHT22;23796;51.458;7.000;2022-11-20T14:49:51;6.90;99.90
37974;DHT22;23796;51.458;7.000;2022-11-20T14:52:20;6.90;99.90
37974;DHT22;23796;51.458;7.000;2022-11-20T14:54:58;6.90;99.90
37974;DHT22;23796;51.458;7.000;2022-11-20T14:57:38;6.80;99.90
37974;DHT22;23796;51.458;7.000;2022-11-20T15:00:19;6.80;99.90
37974;DHT22;23796;51.458;7.000;2022-11-20T15:02:48;6.80;99.90
37974;DHT22;23796;51.458;7.000;2022-11-20T15:05:15;6.80;99.90
37974;DHT22;23796;51.458;7.000;2022-11-20T15:07:50;6.90;99.90
37974;DHT22;23796;51.458;7.000;2022-11-20T15:12:49;6.90;99.90
37974;DHT22;23796;51.458;7.000;2022-11-20T15:15:23;6.90;99.90
37974;DHT22;23796;51.458;7.000;2022-11-20T15:17:50;7.00;99.90
37974;DHT22;23796;51.458;7.000;2022-11-20T15:20:18;6.80;99.90
37974;DHT22;23796;51.458;7.000;2022-11-20T15:22:46;6.80;99.90
37974;DHT22;23796;51.458;7.000;2022-11-20T15:25:16;6.90;99.90
37974;DHT22;23796;51.458;7.000;2022-11-20T15:27:42;6.80;99.90
37974;DHT22;23796;51.458;7.000;2022-11-20T15:30:19;6.90;99.90
37974;DHT22;23796;51.458;7.000;2022-11-20T15:32:47;6.90;99.90
37974;DHT22;23796;51.458;7.000;2022-11-20T15:35:15;6.80;99.90
37974;DHT22;23796;51.458;7.000;2022-11-20T15:37:44;6.80;99.90
37974;DHT22;23796;51.458;7.000;2022-11-20T15:40:10;6.80;99.90
37974;DHT22;23796;51.458;7.000;2022-11-20T15:42:37;6.80;99.90
37974;DHT22;23796;51.458;7.000;2022-11-20T15:45:27;6.70;99.90
37974;DHT22;23796;51.458;7.000;2022-11-20T15:47:55;6.70;99.90
37974;DHT22;23796;51.458;7.000;2022-11-20T15:50:22;6.60;99.90
37974;DHT22;23796;51.458;7.000;2022-11-20T15:52:53;6.60;99.90
37974;DHT22;23796;51.458;7.000;2022-11-20T15:55:20;6.60;99.90
37974;DHT22;23796;51.458;7.000;2022-11-20T15:57:48;6.60;99.90
37974;DHT22;23796;51.458;7.000;2022-11-20T16:00:16;6.60;99.90
37974;DHT22;23796;51.458;7.000;2022-11-20T16:02:45;6.60;99.90
37974;DHT22;23796;51.458;7.000;2022-11-20T16:05:11;6.60;99.90
37974;DHT22;23796;51.458;7.000;2022-11-20T16:07:37;6.50;99.90
37974;DHT22;23796;51.458;7.000;2022-11-20T16:10:03;6.50;99.90
37974;DHT22;23796;51.458;7.000;2022-11-20T16:12:29;6.50;99.90
37974;DHT22;23796;51.458;7.000;2022-11-20T16:15:13;6.50;99.90
37974;DHT22;23796;51.458;7.000;2022-11-20T16:17:59;6.50;99.90
37974;DHT22;23796;51.458;7.000;2022-11-20T16:20:25;6.50;99.90
37974;DHT22;23796;51.458;7.000;2022-11-20T16:22:53;6.60;99.90
37974;DHT22;23796;51.458;7.000;2022-11-20T16:25:18;6.60;99.90
37974;DHT22;23796;51.458;7.000;2022-11-20T16:27:46;6.60;99.90
37974;DHT22;23796;51.458;7.000;2022-11-20T16:30:14;6.60;99.90
37974;DHT22;23796;51.458;7.000;2022-11-20T16:32:40;6.70;99.90
37974;DHT22;23796;51.458;7.000;2022-11-20T16:35:06;6.70;99.90
37974;DHT22;23796;51.458;7.000;2022-11-20T16:37:37;6.70;99.90
37974;DHT22;23796;51.458;7.000;2022-11-20T16:40:04;6.70;99.90
37974;DHT22;23796;51.458;7.000;2022-11-20T16:42:33;6.80;99.90
37974;DHT22;23796;51.458;7.000;2022-11-20T16:44:59;6.80;99.90
37974;DHT22;23796;51.458;7.000;2022-11-20T16:47:27;6.80;99.90
37974;DHT22;23796;51.458;7.000;2022-11-20T16:49:55;6.80;99.90
37974;DHT22;23796;51.458;7.000;2022-11-20T16:52:20;6.80;99.90
37974;DHT22;23796;51.458;7.000;2022-11-20T16:54:48;6.70;99.90
37974;DHT22;23796;51.458;7.000;2022-11-20T16:57:14;6.80;99.90
37974;DHT22;23796;51.458;7.000;2022-11-20T16:59:39;6.80;99.90
37974;DHT22;23796;51.458;7.000;2022-11-20T17:02:05;6.80;99.90
37974;DHT22;23796;51.458;7.000;2022-11-20T17:04:31;6.80;99.90
37974;DHT22;23796;51.458;7.000;2022-11-20T17:06:56;6.80;99.90
37974;DHT22;23796;51.458;7.000;2022-11-20T17:09:27;6.80;99.90
37974;DHT22;23796;51.458;7.000;2022-11-20T17:11:52;6.90;99.90
37974;DHT22;23796;51.458;7.000;2022-11-20T17:14:18;6.90;99.90
37974;DHT22;23796;51.458;7.000;2022-11-20T17:16:44;6.90;99.90
37974;DHT22;23796;51.458;7.000;2022-11-20T17:19:13;6.90;99.90
37974;DHT22;23796;51.458;7.000;2022-11-20T17:21:39;6.90;99.90
37974;DHT22;23796;51.458;7.000;2022-11-20T17:24:08;6.90;99.90
37974;DHT22;23796;51.458;7.000;2022-11-20T17:26:38;6.90;99.90
37974;DHT22;23796;51.458;7.000;2022-11-20T17:29:05;6.90;99.90
37974;DHT22;23796;51.458;7.000;2022-11-20T17:31:33;6.90;99.90
37974;DHT22;23796;51.458;7.000;2022-11-20T17:33:59;6.90;99.90
37974;DHT22;23796;51.458;7.000;2022-11-20T17:36:28;6.90;99.90
37974;DHT22;23796;51.458;7.000;2022-11-20T17:38:54;6.90;99.90
37974;DHT22;23796;51.458;7.000;2022-11-20T17:41:24;6.90;99.90
37974;DHT22;23796;51.458;7.000;2022-11-20T17:43:58;6.90;99.90
37974;DHT22;23796;51.458;7.000;2022-11-20T17:46:26;6.90;99.90
37974;DHT22;23796;51.458;7.000;2022-11-20T17:48:53;6.90;99.90
37974;DHT22;23796;51.458;7.000;2022-11-20T17:51:21;6.90;99.90